createdAt,value
2018-06-05T00:00:08.419Z,11.53
2018-06-05T00:02:35.833Z,12.00
2018-06-05T00:05:03.293Z,15.77
2018-06-05T00:07:30.784Z,13.07
2018-06-05T00:09:58.202Z,13.13
2018-06-05T00:12:25.630Z,14.30
2018-06-05T00:14:53.019Z,14.23
2018-06-05T00:17:20.404Z,13.97
2018-06-05T00:19:47.803Z,13.33
2018-06-05T00:22:15.194Z,13.60
2018-06-05T00:24:42.585Z,13.77
2018-06-05T00:27:09.979Z,15.30
2018-06-05T00:29:37.357Z,12.77
2018-06-05T00:32:04.924Z,13.50
2018-06-05T00:34:32.312Z,13.70
2018-06-05T00:36:59.705Z,14.73
2018-06-05T00:39:27.078Z,13.43
2018-06-05T00:41:54.496Z,13.33
2018-06-05T00:44:21.882Z,13.77
2018-06-05T00:46:49.278Z,12.93
2018-06-05T00:49:16.935Z,13.03
2018-06-05T00:51:55.940Z,12.57
2018-06-05T00:54:23.299Z,13.73
2018-06-05T00:56:50.695Z,13.30
2018-06-05T00:59:18.089Z,13.73
2018-06-05T01:01:46.260Z,13.07
2018-06-05T01:04:13.643Z,13.87
2018-06-05T01:06:41.050Z,14.13
2018-06-05T01:09:08.461Z,16.07
2018-06-05T01:11:35.855Z,13.83
2018-06-05T01:14:03.363Z,14.57
2018-06-05T01:16:30.751Z,14.40
2018-06-05T01:18:58.140Z,13.60
2018-06-05T01:21:25.532Z,17.00
2018-06-05T01:23:52.946Z,16.23
2018-06-05T01:26:20.372Z,15.27
2018-06-05T01:28:47.760Z,16.97
2018-06-05T01:31:15.189Z,17.13
2018-06-05T01:33:42.557Z,15.70
2018-06-05T01:36:09.934Z,16.73
2018-06-05T01:38:37.343Z,15.07
2018-06-05T01:41:04.718Z,14.87
2018-06-05T01:43:32.090Z,14.67
2018-06-05T01:45:59.491Z,14.23
2018-06-05T01:48:26.891Z,15.23
2018-06-05T01:50:54.296Z,14.97
2018-06-05T01:53:21.701Z,16.60
2018-06-05T01:55:49.074Z,20.40
2018-06-05T01:58:16.441Z,15.67
2018-06-05T02:00:43.822Z,14.27
2018-06-05T02:03:11.249Z,15.43
2018-06-05T02:05:38.631Z,16.17
2018-06-05T02:08:06.018Z,20.47
2018-06-05T02:10:33.399Z,16.87
2018-06-05T02:13:00.768Z,20.33
2018-06-05T02:15:28.183Z,17.27
2018-06-05T02:17:55.580Z,19.27
2018-06-05T02:20:22.972Z,18.07
2018-06-05T02:22:50.388Z,16.83
2018-06-05T02:25:17.751Z,18.10
2018-06-05T02:27:45.184Z,17.97
2018-06-05T02:30:12.563Z,18.50
2018-06-05T02:32:39.934Z,16.80
2018-06-05T02:35:07.647Z,18.37
2018-06-05T02:37:35.048Z,18.70
2018-06-05T02:40:02.467Z,17.87
2018-06-05T02:42:29.867Z,19.20
2018-06-05T02:44:57.280Z,21.53
2018-06-05T02:47:24.713Z,18.07
2018-06-05T02:49:52.082Z,19.83
2018-06-05T02:52:19.472Z,21.23
2018-06-05T02:54:46.870Z,17.97
2018-06-05T02:57:14.263Z,21.40
2018-06-05T02:59:41.650Z,19.13
2018-06-05T03:02:09.019Z,22.47
2018-06-05T03:04:36.391Z,19.63
2018-06-05T03:07:03.795Z,22.97
2018-06-05T03:09:31.193Z,20.90
2018-06-05T03:11:58.591Z,22.77
2018-06-05T03:14:26.055Z,19.50
2018-06-05T03:16:53.439Z,19.73
2018-06-05T03:19:20.849Z,19.13
2018-06-05T03:21:48.255Z,20.00
2018-06-05T03:24:15.624Z,21.13
2018-06-05T03:26:42.995Z,21.40
2018-06-05T03:29:10.393Z,22.17
2018-06-05T03:31:37.783Z,23.93
2018-06-05T03:34:05.272Z,18.57
2018-06-05T03:36:32.628Z,24.70
2018-06-05T03:39:00.007Z,22.20
2018-06-05T03:41:28.656Z,18.87
2018-06-05T03:43:56.067Z,18.83
2018-06-05T03:46:23.446Z,19.70
2018-06-05T03:48:51.102Z,18.43
2018-06-05T03:51:18.501Z,18.97
2018-06-05T03:53:45.891Z,17.93
2018-06-05T03:56:13.279Z,19.20
2018-06-05T03:58:40.662Z,20.40
2018-06-05T04:01:08.040Z,19.07
2018-06-05T04:03:35.446Z,22.23
2018-06-05T04:06:02.881Z,24.17
2018-06-05T04:08:30.268Z,21.17
2018-06-05T04:10:57.665Z,20.30
2018-06-05T04:13:25.084Z,21.03
2018-06-05T04:15:52.500Z,20.33
2018-06-05T04:18:19.900Z,16.00
2018-06-05T04:20:47.305Z,21.70
2018-06-05T04:23:14.694Z,16.77
2018-06-05T04:25:42.092Z,19.90
2018-06-05T04:28:09.479Z,21.00
2018-06-05T04:30:36.859Z,21.57
2018-06-05T04:33:04.232Z,23.70
2018-06-05T04:35:31.623Z,22.57
2018-06-05T04:37:59.004Z,23.83
2018-06-05T04:40:26.406Z,20.40
2018-06-05T04:42:53.793Z,22.20
2018-06-05T04:45:21.191Z,17.40
2018-06-05T04:47:48.634Z,17.50
2018-06-05T04:50:15.999Z,23.73
2018-06-05T04:52:43.394Z,22.30
2018-06-05T04:55:10.759Z,21.50
2018-06-05T04:57:38.176Z,18.70
2018-06-05T05:00:05.658Z,20.57
2018-06-05T05:02:33.050Z,18.20
2018-06-05T05:05:00.449Z,15.23
2018-06-05T05:07:27.839Z,19.50
2018-06-05T05:09:55.274Z,17.70
2018-06-05T05:12:22.704Z,18.47
2018-06-05T05:14:50.106Z,16.03
2018-06-05T05:17:17.514Z,18.60
2018-06-05T05:19:44.978Z,18.13
2018-06-05T05:22:12.394Z,18.27
2018-06-05T05:24:39.754Z,17.30
2018-06-05T05:27:07.158Z,20.30
2018-06-05T05:29:34.531Z,19.37
2018-06-05T05:32:01.939Z,18.37
2018-06-05T05:34:29.342Z,19.20
2018-06-05T05:36:56.727Z,16.70
2018-06-05T05:39:24.106Z,19.47
2018-06-05T05:41:51.519Z,21.57
2018-06-05T05:44:18.946Z,18.27
2018-06-05T05:46:46.315Z,19.30
2018-06-05T05:49:13.695Z,18.07
2018-06-05T05:51:41.067Z,18.03
2018-06-05T05:54:08.446Z,16.63
2018-06-05T05:56:35.840Z,16.23
2018-06-05T05:59:03.338Z,15.63
2018-06-05T06:01:30.733Z,16.23
2018-06-05T06:03:58.186Z,15.10
2018-06-05T06:06:25.571Z,15.83
2018-06-05T06:08:52.985Z,14.87
2018-06-05T06:11:20.380Z,13.80
2018-06-05T06:13:47.773Z,14.90
2018-06-05T06:16:15.150Z,12.93
2018-06-05T06:18:42.537Z,15.73
2018-06-05T06:21:09.957Z,13.63
2018-06-05T06:23:37.338Z,12.67
2018-06-05T06:26:04.805Z,13.63
2018-06-05T06:28:32.191Z,12.10
2018-06-05T06:30:59.568Z,15.03
2018-06-05T06:33:26.951Z,12.93
2018-06-05T06:35:54.548Z,12.27
2018-06-05T06:38:21.930Z,11.37
2018-06-05T06:40:49.383Z,13.00
2018-06-05T06:43:16.754Z,14.13
2018-06-05T06:45:44.144Z,14.30
2018-06-05T06:48:11.553Z,14.77
2018-06-05T06:50:38.940Z,12.10
2018-06-05T06:53:06.310Z,12.40
2018-06-05T06:55:33.720Z,13.33
2018-06-05T06:58:01.118Z,12.00
2018-06-05T07:00:28.516Z,11.70
2018-06-05T07:02:55.954Z,11.77
2018-06-05T07:05:23.319Z,12.07
2018-06-05T07:07:50.691Z,10.37
2018-06-05T07:10:18.075Z,13.13
2018-06-05T07:12:45.454Z,12.10
2018-06-05T07:15:12.829Z,15.13
2018-06-05T07:17:40.214Z,12.23
2018-06-05T07:20:07.608Z,12.17
2018-06-05T07:22:34.966Z,12.33
2018-06-05T07:25:02.364Z,11.57
2018-06-05T07:27:29.799Z,15.40
2018-06-05T07:29:57.205Z,13.17
2018-06-05T07:32:24.588Z,11.90
2018-06-05T07:34:51.980Z,11.73
2018-06-05T07:37:19.381Z,12.23
2018-06-05T07:39:46.767Z,11.53
2018-06-05T07:42:14.177Z,11.50
2018-06-05T07:44:41.611Z,12.70
2018-06-05T07:47:08.967Z,12.30
2018-06-05T07:49:36.368Z,12.23
2018-06-05T07:52:03.751Z,13.47
2018-06-05T07:54:31.119Z,14.63
2018-06-05T07:56:58.525Z,12.07
2018-06-05T07:59:25.899Z,13.17
2018-06-05T08:01:53.270Z,12.07
2018-06-05T08:04:20.651Z,13.33
2018-06-05T08:06:48.031Z,12.37
2018-06-05T08:09:15.448Z,13.83
2018-06-05T08:11:43.011Z,14.23
2018-06-05T08:14:10.387Z,11.33
2018-06-05T08:16:37.750Z,12.37
2018-06-05T08:19:05.156Z,14.00
2018-06-05T08:21:32.552Z,13.00
2018-06-05T08:23:59.887Z,13.63
2018-06-05T08:26:36.560Z,15.67
2018-06-05T08:29:03.943Z,13.70
2018-06-05T08:31:31.330Z,12.90
2018-06-05T08:33:58.759Z,14.53
2018-06-05T08:36:26.144Z,13.87
2018-06-05T08:38:53.531Z,11.57
2018-06-05T08:41:20.930Z,15.53
2018-06-05T08:43:48.297Z,14.40
2018-06-05T08:46:15.677Z,12.30
2018-06-05T08:48:43.083Z,12.60
2018-06-05T08:51:10.472Z,12.30
2018-06-05T08:53:38.855Z,11.20
2018-06-05T08:56:06.279Z,13.97
2018-06-05T08:58:33.678Z,13.10
2018-06-05T09:01:01.066Z,11.57
2018-06-05T09:03:28.450Z,14.37
2018-06-05T09:05:55.815Z,12.57
2018-06-05T09:08:23.233Z,13.87
2018-06-05T09:10:50.639Z,12.00
2018-06-05T09:13:18.018Z,13.30
2018-06-05T09:15:45.439Z,12.83
2018-06-05T09:18:12.833Z,11.97
2018-06-05T09:20:40.232Z,14.50
2018-06-05T09:23:07.627Z,13.10
2018-06-05T09:25:35.048Z,12.03
2018-06-05T09:28:03.057Z,14.07
2018-06-05T09:30:30.483Z,14.70
2018-06-05T09:32:57.847Z,14.60
2018-06-05T09:35:25.232Z,11.20
2018-06-05T09:37:52.620Z,10.73
2018-06-05T09:40:19.991Z,10.93
2018-06-05T09:42:47.366Z,11.07
2018-06-05T09:45:14.747Z,11.40
2018-06-05T09:47:42.142Z,11.47
2018-06-05T09:50:09.515Z,11.97
2018-06-05T09:52:36.977Z,11.00
2018-06-05T09:55:04.371Z,13.63
2018-06-05T09:57:31.748Z,15.33
2018-06-05T09:59:59.151Z,11.30
2018-06-05T10:02:26.519Z,11.10
2018-06-05T10:04:53.899Z,12.30
2018-06-05T10:07:21.294Z,10.83
2018-06-05T10:09:48.677Z,13.97
2018-06-05T10:12:16.102Z,10.67
2018-06-05T10:14:43.653Z,12.60
2018-06-05T10:17:11.055Z,12.07
2018-06-05T10:19:38.424Z,11.83
2018-06-05T10:22:05.798Z,11.73
2018-06-05T10:24:33.178Z,10.20
2018-06-05T10:27:00.607Z,11.03
2018-06-05T10:29:27.995Z,12.27
2018-06-05T10:31:55.388Z,11.03
2018-06-05T10:34:22.759Z,9.63
2018-06-05T10:36:50.166Z,11.10
2018-06-05T10:39:17.540Z,10.73
2018-06-05T10:41:44.942Z,10.57
2018-06-05T10:44:12.332Z,11.30
2018-06-05T10:46:39.715Z,11.00
2018-06-05T10:49:07.091Z,10.10
2018-06-05T10:51:34.534Z,9.47
2018-06-05T10:54:01.922Z,10.30
2018-06-05T10:56:29.316Z,10.93
2018-06-05T10:58:56.724Z,12.50
2018-06-05T11:01:24.099Z,10.23
2018-06-05T11:03:51.499Z,11.00
2018-06-05T11:06:18.887Z,11.07
2018-06-05T11:08:46.280Z,12.17
2018-06-05T11:11:13.694Z,12.23
2018-06-05T11:13:41.075Z,11.70
2018-06-05T11:16:08.454Z,12.23
2018-06-05T11:18:35.845Z,11.00
2018-06-05T11:21:03.244Z,12.73
2018-06-05T11:23:30.651Z,12.40
2018-06-05T11:25:58.042Z,12.70
2018-06-05T11:28:25.431Z,12.90
2018-06-05T11:30:52.799Z,13.13
2018-06-05T11:33:20.181Z,12.90
2018-06-05T11:35:47.598Z,13.53
2018-06-05T11:38:14.977Z,11.97
2018-06-05T11:40:42.342Z,13.50
2018-06-05T11:43:09.747Z,15.33
2018-06-05T11:45:37.131Z,14.17
2018-06-05T11:48:04.662Z,14.07
2018-06-05T11:50:32.060Z,14.33
2018-06-05T11:52:59.449Z,13.80
2018-06-05T11:55:26.854Z,19.03
2018-06-05T11:57:54.491Z,13.47
2018-06-05T12:00:21.915Z,14.33
2018-06-05T12:02:49.316Z,13.50
2018-06-05T12:05:16.737Z,15.17
2018-06-05T12:07:44.124Z,14.07
2018-06-05T12:10:11.548Z,12.73
2018-06-05T12:12:38.944Z,13.63
2018-06-05T12:15:06.352Z,15.80
2018-06-05T12:17:33.728Z,14.83
2018-06-05T12:20:01.168Z,14.67
2018-06-05T12:22:28.567Z,13.17
2018-06-05T12:24:55.943Z,14.33
2018-06-05T12:27:23.341Z,12.83
2018-06-05T12:29:50.723Z,12.73
2018-06-05T12:32:18.104Z,11.97
2018-06-05T12:34:45.507Z,14.60
2018-06-05T12:37:12.920Z,13.87
2018-06-05T12:39:40.304Z,13.93
2018-06-05T12:42:07.706Z,13.93
2018-06-05T12:44:35.103Z,12.03
2018-06-05T12:47:02.495Z,14.80
2018-06-05T12:49:29.894Z,13.57
2018-06-05T12:51:57.267Z,13.90
2018-06-05T12:54:24.651Z,14.23
2018-06-05T12:56:52.055Z,14.63
2018-06-05T12:59:19.465Z,13.93
2018-06-05T13:01:46.932Z,13.90
2018-06-05T13:04:14.317Z,13.23
2018-06-05T13:06:41.729Z,12.80
2018-06-05T13:09:09.454Z,15.20
2018-06-05T13:11:36.850Z,14.50
2018-06-05T13:14:04.273Z,17.40
2018-06-05T13:16:31.663Z,14.43
2018-06-05T13:18:59.084Z,13.83
2018-06-05T13:21:26.486Z,14.17
2018-06-05T13:23:53.861Z,13.60
2018-06-05T13:26:21.278Z,14.37
2018-06-05T13:28:48.681Z,13.73
2018-06-05T13:31:16.084Z,13.97
2018-06-05T13:33:43.471Z,15.30
2018-06-05T13:36:10.871Z,14.73
2018-06-05T13:38:38.290Z,13.63
2018-06-05T13:41:05.704Z,15.67
2018-06-05T13:43:33.105Z,14.53
2018-06-05T13:46:00.522Z,15.27
2018-06-05T13:48:27.904Z,14.33
2018-06-05T13:50:55.307Z,14.97
2018-06-05T13:53:22.693Z,13.90
2018-06-05T13:55:50.159Z,13.93
2018-06-05T13:58:17.548Z,15.60
2018-06-05T14:00:44.950Z,14.10
2018-06-05T14:03:12.333Z,14.97
2018-06-05T14:05:39.740Z,14.10
2018-06-05T14:08:07.147Z,14.67
2018-06-05T14:10:34.519Z,15.53
2018-06-05T14:13:01.912Z,16.87
2018-06-05T14:15:29.345Z,14.53
2018-06-05T14:17:56.748Z,14.30
2018-06-05T14:20:24.155Z,14.43
2018-06-05T14:22:51.556Z,13.40
2018-06-05T14:25:18.932Z,11.73
2018-06-05T14:27:46.320Z,14.90
2018-06-05T14:30:14.023Z,13.30
2018-06-05T14:32:41.423Z,12.87
2018-06-05T14:35:08.807Z,12.87
2018-06-05T14:37:36.211Z,13.53
2018-06-05T14:40:04.192Z,13.57
2018-06-05T14:42:31.563Z,14.37
2018-06-05T14:44:59.043Z,12.57
2018-06-05T14:47:26.399Z,14.57
2018-06-05T14:49:53.777Z,14.00
2018-06-05T14:52:21.165Z,12.20
2018-06-05T14:54:48.550Z,12.07
2018-06-05T14:57:16.012Z,12.93
2018-06-05T14:59:43.431Z,14.20
2018-06-05T15:02:10.877Z,14.97
2018-06-05T15:04:38.271Z,13.60
2018-06-05T15:07:05.688Z,15.67
2018-06-05T15:09:33.169Z,12.30
2018-06-05T15:12:00.619Z,12.40
2018-06-05T15:14:28.040Z,12.77
2018-06-05T15:16:55.471Z,12.97
2018-06-05T15:19:22.872Z,13.13
2018-06-05T15:21:50.533Z,12.10
2018-06-05T15:24:17.922Z,13.97
2018-06-05T15:26:45.323Z,13.17
2018-06-05T15:29:12.787Z,12.63
2018-06-05T15:31:40.174Z,12.40
2018-06-05T15:36:41.837Z,13.40
2018-06-05T15:39:09.355Z,12.43
2018-06-05T15:41:37.063Z,11.27
2018-06-05T15:44:04.522Z,14.80
2018-06-05T15:46:31.913Z,11.13
2018-06-05T15:48:59.325Z,12.83
2018-06-05T15:51:26.740Z,11.97
2018-06-05T15:53:54.135Z,10.73
2018-06-05T15:56:21.531Z,12.17
2018-06-05T15:58:48.923Z,12.37
2018-06-05T16:01:16.567Z,12.30
2018-06-05T16:03:43.947Z,13.37
2018-06-05T16:06:11.358Z,12.40
2018-06-05T16:08:38.784Z,10.80
2018-06-05T16:11:06.191Z,11.60
2018-06-05T16:13:33.617Z,10.47
2018-06-05T16:16:01.047Z,11.27
2018-06-05T16:18:28.427Z,12.80
2018-06-05T16:20:55.825Z,11.23
2018-06-05T16:23:23.197Z,10.77
2018-06-05T16:25:50.579Z,12.30
2018-06-05T16:28:18.006Z,10.50
2018-06-05T16:30:45.379Z,11.00
2018-06-05T16:33:12.783Z,12.20
2018-06-05T16:35:40.192Z,13.03
2018-06-05T16:38:07.595Z,11.23
2018-06-05T16:40:35.017Z,12.03
2018-06-05T16:43:02.457Z,12.07
2018-06-05T16:45:29.861Z,10.10
2018-06-05T16:47:57.249Z,10.97
2018-06-05T16:50:24.670Z,11.00
2018-06-05T16:52:52.112Z,12.73
2018-06-05T16:55:19.459Z,11.37
2018-06-05T16:57:46.992Z,13.03
2018-06-05T17:00:14.428Z,11.23
2018-06-05T17:02:41.843Z,11.77
2018-06-05T17:05:09.247Z,10.77
2018-06-05T17:07:36.615Z,10.57
2018-06-05T17:10:04.033Z,11.70
2018-06-05T17:12:31.423Z,10.23
2018-06-05T17:14:58.809Z,10.87
2018-06-05T17:17:26.271Z,10.20
2018-06-05T17:19:53.650Z,11.57
2018-06-05T17:22:21.050Z,11.23
2018-06-05T17:24:48.485Z,9.73
2018-06-05T17:27:16.030Z,12.80
2018-06-05T17:29:43.295Z,10.37
2018-06-05T17:32:10.963Z,9.90
2018-06-05T17:34:38.354Z,9.80
2018-06-05T17:37:05.760Z,9.93
2018-06-05T17:39:33.448Z,10.60
2018-06-05T17:42:00.861Z,10.23
2018-06-05T17:44:28.251Z,10.97
2018-06-05T17:46:57.146Z,10.80
2018-06-05T17:49:24.599Z,10.13
2018-06-05T17:51:51.983Z,11.80
2018-06-05T17:54:19.397Z,11.53
2018-06-05T17:56:46.787Z,10.27
2018-06-05T17:59:14.208Z,10.83
2018-06-05T18:01:41.677Z,10.60
2018-06-05T18:04:09.122Z,10.33
2018-06-05T18:06:37.577Z,10.17
2018-06-05T18:09:06.631Z,10.73
2018-06-05T18:11:34.129Z,10.77
2018-06-05T18:14:01.551Z,11.77
2018-06-05T18:16:28.957Z,11.13
2018-06-05T18:18:56.348Z,10.93
2018-06-05T18:21:23.746Z,10.57
2018-06-05T18:23:51.151Z,11.37
2018-06-05T18:26:18.558Z,10.70
2018-06-05T18:28:45.937Z,10.77
2018-06-05T18:31:13.384Z,10.63
2018-06-05T18:33:40.788Z,12.23
2018-06-05T18:36:08.275Z,9.57
2018-06-05T18:38:35.674Z,10.47
2018-06-05T18:41:03.123Z,13.53
2018-06-05T18:43:30.563Z,10.38
2018-06-05T18:45:58.275Z,10.33
2018-06-05T18:48:25.692Z,10.87
2018-06-05T18:50:53.073Z,9.60
2018-06-05T18:53:20.485Z,10.60
2018-06-05T18:55:47.924Z,10.73
2018-06-05T18:58:15.391Z,10.73
2018-06-05T19:00:42.850Z,10.77
2018-06-05T19:03:10.207Z,10.30
2018-06-05T19:05:37.649Z,9.97
2018-06-05T19:08:05.074Z,10.17
2018-06-05T19:10:32.491Z,17.23
2018-06-05T19:12:59.935Z,12.17
2018-06-05T19:15:27.338Z,11.03
2018-06-05T19:17:54.780Z,9.97
2018-06-05T19:20:22.163Z,9.00
2018-06-05T19:22:49.594Z,8.63
2018-06-05T19:25:17.026Z,11.23
2018-06-05T19:27:44.431Z,10.70
2018-06-05T19:30:11.855Z,12.13
2018-06-05T19:32:39.273Z,10.43
2018-06-05T19:35:06.683Z,9.27
2018-06-05T19:37:34.058Z,8.87
2018-06-05T19:40:01.463Z,9.57
2018-06-05T19:42:28.875Z,9.50
2018-06-05T19:44:56.289Z,9.97
2018-06-05T19:47:23.772Z,12.67
2018-06-05T19:49:51.147Z,11.27
2018-06-05T19:52:18.551Z,10.30
2018-06-05T19:54:46.114Z,14.00
2018-06-05T19:57:13.530Z,9.60
2018-06-05T19:59:41.001Z,9.70
2018-06-05T20:02:08.467Z,10.27
2018-06-05T20:04:35.860Z,13.07
2018-06-05T20:07:03.259Z,11.47
2018-06-05T20:09:30.964Z,11.17
2018-06-05T20:11:58.352Z,10.77
2018-06-05T20:14:25.735Z,10.30
2018-06-05T20:16:53.155Z,8.70
2018-06-05T20:19:20.550Z,9.80
2018-06-05T20:21:48.000Z,10.47
2018-06-05T20:24:15.413Z,10.47
2018-06-05T20:26:42.880Z,11.07
2018-06-05T20:29:10.280Z,14.33
2018-06-05T20:31:37.669Z,12.17
2018-06-05T20:34:05.067Z,11.87
2018-06-05T20:36:32.481Z,9.40
2018-06-05T20:38:59.896Z,12.70
2018-06-05T20:41:27.291Z,9.97
2018-06-05T20:43:54.707Z,8.60
2018-06-05T20:46:22.108Z,11.57
2018-06-05T20:48:49.536Z,10.33
2018-06-05T20:51:16.953Z,10.17
2018-06-05T20:53:44.342Z,11.13
2018-06-05T20:56:11.744Z,11.43
2018-06-05T20:58:39.145Z,10.17
2018-06-05T21:01:06.566Z,10.53
2018-06-05T21:03:33.991Z,10.87
2018-06-05T21:06:01.359Z,12.60
2018-06-05T21:08:28.760Z,11.40
2018-06-05T21:10:56.148Z,12.47
2018-06-05T21:13:23.527Z,11.43
2018-06-05T21:15:50.920Z,10.67
2018-06-05T21:18:18.321Z,13.47
2018-06-05T21:20:45.744Z,11.60
2018-06-05T21:23:13.123Z,11.40
2018-06-05T21:25:40.495Z,14.67
2018-06-05T21:28:07.881Z,12.97
2018-06-05T21:30:35.298Z,10.83
2018-06-05T21:33:02.695Z,11.87
2018-06-05T21:35:30.067Z,11.20
2018-06-05T21:37:57.434Z,11.93
2018-06-05T21:40:24.847Z,11.43
2018-06-05T21:42:52.230Z,12.83
2018-06-05T21:45:19.596Z,16.17
2018-06-05T21:47:46.987Z,12.87
2018-06-05T21:50:14.383Z,15.40
2018-06-05T21:52:41.766Z,17.13
2018-06-05T21:55:10.031Z,16.20
2018-06-05T21:57:38.555Z,16.00
2018-06-05T22:00:05.975Z,13.13
2018-06-05T22:02:33.420Z,14.70
2018-06-05T22:05:00.812Z,12.73
2018-06-05T22:07:28.236Z,14.90
2018-06-05T22:09:55.624Z,15.30
2018-06-05T22:12:23.035Z,17.27
2018-06-05T22:14:50.418Z,12.27
2018-06-05T22:17:17.835Z,14.87
2018-06-05T22:19:45.208Z,15.37
2018-06-05T22:22:12.583Z,16.70
2018-06-05T22:24:39.967Z,14.50
2018-06-05T22:27:07.356Z,12.70
2018-06-05T22:29:34.719Z,15.40
2018-06-05T22:32:02.110Z,15.47
2018-06-05T22:34:29.523Z,12.67
2018-06-05T22:36:57.048Z,17.93
2018-06-05T22:39:24.616Z,12.93
2018-06-05T22:41:52.003Z,14.77
2018-06-05T22:44:19.375Z,13.20
2018-06-05T22:46:46.767Z,13.70
2018-06-05T22:49:14.126Z,17.97
2018-06-05T22:51:41.513Z,10.83
2018-06-05T22:54:08.907Z,15.87
2018-06-05T22:56:36.291Z,16.70
2018-06-05T22:59:03.683Z,15.17
2018-06-05T23:01:31.058Z,16.97
2018-06-05T23:03:58.447Z,14.40
2018-06-05T23:06:25.815Z,19.93
2018-06-05T23:08:53.223Z,16.73
2018-06-05T23:11:20.595Z,16.50
2018-06-05T23:13:47.979Z,18.20
2018-06-05T23:16:15.344Z,16.03
2018-06-05T23:18:42.719Z,17.13
2018-06-05T23:21:10.099Z,20.53
2018-06-05T23:23:37.481Z,15.23
2018-06-05T23:26:05.029Z,12.77
2018-06-05T23:28:32.398Z,16.83
2018-06-05T23:30:59.767Z,15.00
2018-06-05T23:33:27.192Z,17.03
2018-06-05T23:35:54.584Z,15.90
2018-06-05T23:38:21.967Z,14.93
2018-06-05T23:40:49.339Z,17.50
2018-06-05T23:43:16.716Z,16.43
2018-06-05T23:45:44.107Z,19.43
2018-06-05T23:48:11.495Z,19.03
2018-06-05T23:50:38.902Z,19.37
2018-06-05T23:53:06.300Z,22.30
2018-06-05T23:55:33.691Z,16.27
2018-06-05T23:58:01.079Z,20.50
